sensor_id;sensor_type;location;lat;lon;timestamp;P1;durP1;ratioP1;P2;durP2;ratioP2
73841;SDS011;62184;52.006;5.924;2023-05-10T00:01:59;65.18;;;17.60;;
73841;SDS011;62184;52.006;5.924;2023-05-10T00:04:28;64.53;;;18.08;;
73841;SDS011;62184;52.006;5.924;2023-05-10T00:06:54;63.80;;;18.48;;
73841;SDS011;62184;52.006;5.924;2023-05-10T00:09:21;63.33;;;18.08;;
73841;SDS011;62184;52.006;5.924;2023-05-10T00:11:47;64.65;;;18.05;;
73841;SDS011;62184;52.006;5.924;2023-05-10T00:14:14;71.32;;;19.55;;
73841;SDS011;62184;52.006;5.924;2023-05-10T00:16:40;76.80;;;20.23;;
73841;SDS011;62184;52.006;5.924;2023-05-10T00:19:07;77.28;;;20.20;;
73841;SDS011;62184;52.006;5.924;2023-05-10T00:21:36;69.93;;;20.10;;
73841;SDS011;62184;52.006;5.924;2023-05-10T00:24:02;79.97;;;20.73;;
73841;SDS011;62184;52.006;5.924;2023-05-10T00:26:30;80.80;;;22.50;;
73841;SDS011;62184;52.006;5.924;2023-05-10T00:28:56;83.00;;;21.80;;
73841;SDS011;62184;52.006;5.924;2023-05-10T00:31:23;91.03;;;22.83;;
73841;SDS011;62184;52.006;5.924;2023-05-10T00:33:49;97.25;;;23.35;;
73841;SDS011;62184;52.006;5.924;2023-05-10T00:36:16;92.93;;;22.88;;
73841;SDS011;62184;52.006;5.924;2023-05-10T00:38:45;94.03;;;23.43;;
73841;SDS011;62184;52.006;5.924;2023-05-10T00:41:11;100.13;;;23.67;;
73841;SDS011;62184;52.006;5.924;2023-05-10T00:43:37;96.18;;;23.92;;
73841;SDS011;62184;52.006;5.924;2023-05-10T00:46:04;100.50;;;24.50;;
73841;SDS011;62184;52.006;5.924;2023-05-10T00:48:31;95.60;;;23.98;;
73841;SDS011;62184;52.006;5.924;2023-05-10T00:50:58;98.63;;;24.65;;
73841;SDS011;62184;52.006;5.924;2023-05-10T00:53:26;102.30;;;24.93;;
73841;SDS011;62184;52.006;5.924;2023-05-10T00:55:56;102.93;;;25.75;;
73841;SDS011;62184;52.006;5.924;2023-05-10T00:58:22;98.80;;;25.02;;
73841;SDS011;62184;52.006;5.924;2023-05-10T01:00:49;96.50;;;24.87;;
73841;SDS011;62184;52.006;5.924;2023-05-10T01:03:18;99.78;;;25.42;;
73841;SDS011;62184;52.006;5.924;2023-05-10T01:05:44;98.22;;;24.35;;
73841;SDS011;62184;52.006;5.924;2023-05-10T01:08:11;105.55;;;26.25;;
73841;SDS011;62184;52.006;5.924;2023-05-10T01:10:37;99.73;;;25.43;;
73841;SDS011;62184;52.006;5.924;2023-05-10T01:13:06;97.32;;;25.08;;
73841;SDS011;62184;52.006;5.924;2023-05-10T01:15:33;104.63;;;26.40;;
73841;SDS011;62184;52.006;5.924;2023-05-10T01:18:01;101.57;;;26.40;;
73841;SDS011;62184;52.006;5.924;2023-05-10T01:20:30;101.35;;;26.52;;
73841;SDS011;62184;52.006;5.924;2023-05-10T01:23:19;105.32;;;27.75;;
73841;SDS011;62184;52.006;5.924;2023-05-10T01:26:07;102.88;;;25.92;;
73841;SDS011;62184;52.006;5.924;2023-05-10T01:29:11;104.45;;;28.23;;
73841;SDS011;62184;52.006;5.924;2023-05-10T01:32:05;104.07;;;28.83;;
73841;SDS011;62184;52.006;5.924;2023-05-10T01:34:54;107.15;;;30.13;;
73841;SDS011;62184;52.006;5.924;2023-05-10T01:37:30;115.82;;;31.00;;
73841;SDS011;62184;52.006;5.924;2023-05-10T01:40:23;116.22;;;31.27;;
73841;SDS011;62184;52.006;5.924;2023-05-10T01:43:01;117.55;;;31.40;;
73841;SDS011;62184;52.006;5.924;2023-05-10T01:45:33;116.47;;;31.35;;
73841;SDS011;62184;52.006;5.924;2023-05-10T01:48:10;116.65;;;31.77;;
73841;SDS011;62184;52.006;5.924;2023-05-10T01:50:40;114.47;;;32.75;;
73841;SDS011;62184;52.006;5.924;2023-05-10T01:53:11;114.57;;;33.10;;
73841;SDS011;62184;52.006;5.924;2023-05-10T01:55:45;111.60;;;32.22;;
73841;SDS011;62184;52.006;5.924;2023-05-10T01:58:17;113.85;;;32.35;;
73841;SDS011;62184;52.006;5.924;2023-05-10T02:00:50;113.95;;;32.15;;
73841;SDS011;62184;52.006;5.924;2023-05-10T02:03:23;121.88;;;32.90;;
73841;SDS011;62184;52.006;5.924;2023-05-10T02:05:51;107.65;;;32.00;;
73841;SDS011;62184;52.006;5.924;2023-05-10T02:08:21;108.25;;;32.58;;
73841;SDS011;62184;52.006;5.924;2023-05-10T02:10:50;106.90;;;31.60;;
73841;SDS011;62184;52.006;5.924;2023-05-10T02:13:21;111.18;;;31.85;;
73841;SDS011;62184;52.006;5.924;2023-05-10T02:15:51;107.03;;;30.80;;
73841;SDS011;62184;52.006;5.924;2023-05-10T02:18:23;107.50;;;31.05;;
73841;SDS011;62184;52.006;5.924;2023-05-10T02:20:52;103.57;;;30.67;;
73841;SDS011;62184;52.006;5.924;2023-05-10T02:23:21;102.65;;;30.13;;
73841;SDS011;62184;52.006;5.924;2023-05-10T02:25:51;99.13;;;30.35;;
73841;SDS011;62184;52.006;5.924;2023-05-10T02:28:20;97.35;;;28.75;;
73841;SDS011;62184;52.006;5.924;2023-05-10T02:30:49;92.63;;;28.42;;
73841;SDS011;62184;52.006;5.924;2023-05-10T02:33:17;96.90;;;29.17;;
73841;SDS011;62184;52.006;5.924;2023-05-10T02:35:49;96.07;;;30.20;;
73841;SDS011;62184;52.006;5.924;2023-05-10T02:38:16;102.50;;;29.83;;
73841;SDS011;62184;52.006;5.924;2023-05-10T02:40:46;104.10;;;30.60;;
73841;SDS011;62184;52.006;5.924;2023-05-10T02:43:14;101.13;;;29.02;;
73841;SDS011;62184;52.006;5.924;2023-05-10T02:45:44;96.90;;;28.88;;
73841;SDS011;62184;52.006;5.924;2023-05-10T02:48:13;99.77;;;28.67;;
73841;SDS011;62184;52.006;5.924;2023-05-10T02:50:42;101.40;;;29.27;;
73841;SDS011;62184;52.006;5.924;2023-05-10T02:53:15;102.55;;;28.80;;
73841;SDS011;62184;52.006;5.924;2023-05-10T02:55:48;102.93;;;28.50;;
73841;SDS011;62184;52.006;5.924;2023-05-10T02:58:21;99.75;;;28.92;;
73841;SDS011;62184;52.006;5.924;2023-05-10T03:00:47;96.03;;;29.15;;
73841;SDS011;62184;52.006;5.924;2023-05-10T03:03:14;92.97;;;27.58;;
73841;SDS011;62184;52.006;5.924;2023-05-10T03:05:40;99.57;;;28.52;;
73841;SDS011;62184;52.006;5.924;2023-05-10T03:08:07;103.18;;;29.05;;
73841;SDS011;62184;52.006;5.924;2023-05-10T03:10:38;100.25;;;29.13;;
73841;SDS011;62184;52.006;5.924;2023-05-10T03:13:16;94.70;;;28.52;;
73841;SDS011;62184;52.006;5.924;2023-05-10T03:15:58;93.00;;;29.23;;
73841;SDS011;62184;52.006;5.924;2023-05-10T03:18:33;96.22;;;28.08;;
73841;SDS011;62184;52.006;5.924;2023-05-10T03:21:10;97.70;;;27.77;;
73841;SDS011;62184;52.006;5.924;2023-05-10T03:23:40;97.32;;;28.50;;
73841;SDS011;62184;52.006;5.924;2023-05-10T03:26:15;93.95;;;28.27;;
73841;SDS011;62184;52.006;5.924;2023-05-10T03:28:49;90.70;;;27.47;;
73841;SDS011;62184;52.006;5.924;2023-05-10T03:31:18;88.33;;;27.67;;
73841;SDS011;62184;52.006;5.924;2023-05-10T03:33:47;88.25;;;26.70;;
73841;SDS011;62184;52.006;5.924;2023-05-10T03:36:15;82.57;;;26.60;;
73841;SDS011;62184;52.006;5.924;2023-05-10T03:38:41;78.55;;;26.52;;
73841;SDS011;62184;52.006;5.924;2023-05-10T03:41:08;84.70;;;27.55;;
73841;SDS011;62184;52.006;5.924;2023-05-10T03:43:37;82.28;;;26.67;;
73841;SDS011;62184;52.006;5.924;2023-05-10T03:46:04;88.03;;;26.50;;
73841;SDS011;62184;52.006;5.924;2023-05-10T03:48:31;82.90;;;26.30;;
73841;SDS011;62184;52.006;5.924;2023-05-10T03:50:58;83.03;;;26.95;;
73841;SDS011;62184;52.006;5.924;2023-05-10T03:53:25;81.13;;;26.70;;
73841;SDS011;62184;52.006;5.924;2023-05-10T03:55:51;78.85;;;26.85;;
73841;SDS011;62184;52.006;5.924;2023-05-10T03:58:18;73.93;;;25.83;;
73841;SDS011;62184;52.006;5.924;2023-05-10T04:00:47;80.23;;;26.43;;
73841;SDS011;62184;52.006;5.924;2023-05-10T04:03:13;81.75;;;27.70;;
73841;SDS011;62184;52.006;5.924;2023-05-10T04:05:40;83.97;;;27.47;;
73841;SDS011;62184;52.006;5.924;2023-05-10T04:08:06;82.13;;;27.52;;
73841;SDS011;62184;52.006;5.924;2023-05-10T04:10:33;82.85;;;27.55;;
73841;SDS011;62184;52.006;5.924;2023-05-10T04:12:59;82.78;;;28.15;;
73841;SDS011;62184;52.006;5.924;2023-05-10T04:15:26;86.57;;;29.02;;
73841;SDS011;62184;52.006;5.924;2023-05-10T04:17:55;88.85;;;29.85;;
73841;SDS011;62184;52.006;5.924;2023-05-10T04:20:21;83.78;;;28.85;;
73841;SDS011;62184;52.006;5.924;2023-05-10T04:22:48;86.57;;;29.90;;
73841;SDS011;62184;52.006;5.924;2023-05-10T04:25:14;84.60;;;27.98;;
73841;SDS011;62184;52.006;5.924;2023-05-10T04:27:41;82.78;;;28.33;;
73841;SDS011;62184;52.006;5.924;2023-05-10T04:30:07;87.80;;;28.85;;
73841;SDS011;62184;52.006;5.924;2023-05-10T04:32:35;87.13;;;29.20;;
73841;SDS011;62184;52.006;5.924;2023-05-10T04:35:04;88.35;;;29.35;;
73841;SDS011;62184;52.006;5.924;2023-05-10T04:37:31;87.80;;;29.42;;
73841;SDS011;62184;52.006;5.924;2023-05-10T04:39:58;86.13;;;28.13;;
73841;SDS011;62184;52.006;5.924;2023-05-10T04:42:24;90.65;;;29.55;;
73841;SDS011;62184;52.006;5.924;2023-05-10T04:44:51;93.88;;;29.50;;
73841;SDS011;62184;52.006;5.924;2023-05-10T04:47:17;91.88;;;29.42;;
73841;SDS011;62184;52.006;5.924;2023-05-10T04:49:43;97.78;;;29.27;;
73841;SDS011;62184;52.006;5.924;2023-05-10T04:52:12;97.40;;;28.70;;
73841;SDS011;62184;52.006;5.924;2023-05-10T04:54:39;94.93;;;28.80;;
73841;SDS011;62184;52.006;5.924;2023-05-10T04:57:05;99.72;;;29.70;;
73841;SDS011;62184;52.006;5.924;2023-05-10T04:59:32;102.90;;;28.95;;
73841;SDS011;62184;52.006;5.924;2023-05-10T05:01:58;103.05;;;29.40;;
73841;SDS011;62184;52.006;5.924;2023-05-10T05:04:24;98.80;;;30.13;;
73841;SDS011;62184;52.006;5.924;2023-05-10T05:06:51;103.90;;;30.35;;
73841;SDS011;62184;52.006;5.924;2023-05-10T05:09:20;101.57;;;29.83;;
73841;SDS011;62184;52.006;5.924;2023-05-10T05:11:46;101.72;;;29.98;;
73841;SDS011;62184;52.006;5.924;2023-05-10T05:14:13;99.30;;;30.08;;
73841;SDS011;62184;52.006;5.924;2023-05-10T05:16:39;97.20;;;29.80;;
73841;SDS011;62184;52.006;5.924;2023-05-10T05:19:05;92.15;;;28.52;;
73841;SDS011;62184;52.006;5.924;2023-05-10T05:21:32;90.35;;;28.20;;
73841;SDS011;62184;52.006;5.924;2023-05-10T05:23:58;87.47;;;28.45;;
73841;SDS011;62184;52.006;5.924;2023-05-10T05:26:28;88.35;;;27.55;;
73841;SDS011;62184;52.006;5.924;2023-05-10T05:28:54;74.57;;;26.17;;
73841;SDS011;62184;52.006;5.924;2023-05-10T05:31:21;80.17;;;27.00;;
73841;SDS011;62184;52.006;5.924;2023-05-10T05:33:47;72.30;;;26.17;;
73841;SDS011;62184;52.006;5.924;2023-05-10T05:36:14;75.60;;;26.45;;
73841;SDS011;62184;52.006;5.924;2023-05-10T05:38:40;72.57;;;26.23;;
73841;SDS011;62184;52.006;5.924;2023-05-10T05:41:07;69.10;;;25.70;;
73841;SDS011;62184;52.006;5.924;2023-05-10T05:43:36;66.97;;;25.00;;
73841;SDS011;62184;52.006;5.924;2023-05-10T05:46:02;67.47;;;25.77;;
73841;SDS011;62184;52.006;5.924;2023-05-10T05:48:29;69.18;;;25.90;;
73841;SDS011;62184;52.006;5.924;2023-05-10T05:50:55;66.20;;;25.70;;
73841;SDS011;62184;52.006;5.924;2023-05-10T05:53:22;62.20;;;24.58;;
73841;SDS011;62184;52.006;5.924;2023-05-10T05:55:52;62.33;;;25.40;;
73841;SDS011;62184;52.006;5.924;2023-05-10T05:58:19;60.00;;;24.93;;
73841;SDS011;62184;52.006;5.924;2023-05-10T06:00:49;61.08;;;25.02;;
73841;SDS011;62184;52.006;5.924;2023-05-10T06:03:15;57.92;;;23.75;;
73841;SDS011;62184;52.006;5.924;2023-05-10T06:05:42;56.20;;;23.80;;
73841;SDS011;62184;52.006;5.924;2023-05-10T06:08:08;57.60;;;24.70;;
73841;SDS011;62184;52.006;5.924;2023-05-10T06:10:35;59.83;;;24.90;;
73841;SDS011;62184;52.006;5.924;2023-05-10T06:13:02;63.42;;;24.55;;
73841;SDS011;62184;52.006;5.924;2023-05-10T06:15:28;64.03;;;25.40;;
73841;SDS011;62184;52.006;5.924;2023-05-10T06:17:57;63.15;;;24.15;;
73841;SDS011;62184;52.006;5.924;2023-05-10T06:20:24;61.97;;;24.00;;
73841;SDS011;62184;52.006;5.924;2023-05-10T06:22:51;61.88;;;24.67;;
73841;SDS011;62184;52.006;5.924;2023-05-10T06:25:17;61.10;;;24.33;;
73841;SDS011;62184;52.006;5.924;2023-05-10T06:27:44;63.25;;;24.85;;
73841;SDS011;62184;52.006;5.924;2023-05-10T06:30:11;66.03;;;24.23;;
73841;SDS011;62184;52.006;5.924;2023-05-10T06:32:38;64.95;;;24.60;;
73841;SDS011;62184;52.006;5.924;2023-05-10T06:35:08;67.45;;;24.77;;
73841;SDS011;62184;52.006;5.924;2023-05-10T06:37:35;66.68;;;24.58;;
73841;SDS011;62184;52.006;5.924;2023-05-10T06:40:01;74.00;;;26.05;;
73841;SDS011;62184;52.006;5.924;2023-05-10T06:42:28;77.10;;;25.85;;
73841;SDS011;62184;52.006;5.924;2023-05-10T06:44:55;74.43;;;25.55;;
73841;SDS011;62184;52.006;5.924;2023-05-10T06:47:21;71.22;;;25.23;;
73841;SDS011;62184;52.006;5.924;2023-05-10T06:49:48;66.68;;;24.75;;
73841;SDS011;62184;52.006;5.924;2023-05-10T06:52:16;70.20;;;25.30;;
73841;SDS011;62184;52.006;5.924;2023-05-10T06:54:43;69.55;;;25.90;;
73841;SDS011;62184;52.006;5.924;2023-05-10T06:57:09;70.60;;;27.20;;
73841;SDS011;62184;52.006;5.924;2023-05-10T06:59:36;69.38;;;27.27;;
73841;SDS011;62184;52.006;5.924;2023-05-10T07:02:02;66.50;;;26.13;;
73841;SDS011;62184;52.006;5.924;2023-05-10T07:04:29;70.37;;;27.13;;
73841;SDS011;62184;52.006;5.924;2023-05-10T07:06:55;64.53;;;26.87;;
73841;SDS011;62184;52.006;5.924;2023-05-10T07:09:24;65.18;;;27.17;;
73841;SDS011;62184;52.006;5.924;2023-05-10T07:11:50;65.47;;;27.08;;
73841;SDS011;62184;52.006;5.924;2023-05-10T07:14:17;69.47;;;27.63;;
73841;SDS011;62184;52.006;5.924;2023-05-10T07:16:43;67.33;;;27.83;;
73841;SDS011;62184;52.006;5.924;2023-05-10T07:19:10;64.50;;;27.55;;
73841;SDS011;62184;52.006;5.924;2023-05-10T07:21:36;64.43;;;27.67;;
73841;SDS011;62184;52.006;5.924;2023-05-10T07:24:02;59.50;;;26.38;;
73841;SDS011;62184;52.006;5.924;2023-05-10T07:26:32;58.13;;;26.63;;
73841;SDS011;62184;52.006;5.924;2023-05-10T07:28:58;59.05;;;26.65;;
73841;SDS011;62184;52.006;5.924;2023-05-10T07:31:24;59.28;;;26.27;;
73841;SDS011;62184;52.006;5.924;2023-05-10T07:33:51;59.80;;;26.35;;
73841;SDS011;62184;52.006;5.924;2023-05-10T07:36:17;62.35;;;27.13;;
73841;SDS011;62184;52.006;5.924;2023-05-10T07:38:44;60.47;;;26.60;;
73841;SDS011;62184;52.006;5.924;2023-05-10T07:41:10;57.42;;;26.27;;
73841;SDS011;62184;52.006;5.924;2023-05-10T07:43:40;56.25;;;25.70;;
73841;SDS011;62184;52.006;5.924;2023-05-10T07:46:06;50.53;;;23.90;;
73841;SDS011;62184;52.006;5.924;2023-05-10T07:48:33;51.97;;;25.35;;
73841;SDS011;62184;52.006;5.924;2023-05-10T07:50:59;52.45;;;24.80;;
73841;SDS011;62184;52.006;5.924;2023-05-10T07:53:26;50.23;;;24.47;;
73841;SDS011;62184;52.006;5.924;2023-05-10T07:55:52;50.45;;;23.85;;
73841;SDS011;62184;52.006;5.924;2023-05-10T07:58:23;50.37;;;24.47;;
73841;SDS011;62184;52.006;5.924;2023-05-10T08:00:53;46.43;;;22.60;;
73841;SDS011;62184;52.006;5.924;2023-05-10T08:03:20;44.33;;;22.13;;
73841;SDS011;62184;52.006;5.924;2023-05-10T08:05:46;45.90;;;23.70;;
73841;SDS011;62184;52.006;5.924;2023-05-10T08:08:13;46.75;;;23.05;;
73841;SDS011;62184;52.006;5.924;2023-05-10T08:10:39;44.75;;;22.55;;
73841;SDS011;62184;52.006;5.924;2023-05-10T08:13:05;44.35;;;22.65;;
73841;SDS011;62184;52.006;5.924;2023-05-10T08:15:32;45.85;;;23.48;;
73841;SDS011;62184;52.006;5.924;2023-05-10T08:18:01;46.45;;;22.80;;
73841;SDS011;62184;52.006;5.924;2023-05-10T08:20:27;43.55;;;22.30;;
73841;SDS011;62184;52.006;5.924;2023-05-10T08:22:54;44.28;;;22.38;;
73841;SDS011;62184;52.006;5.924;2023-05-10T08:25:20;43.08;;;22.02;;
73841;SDS011;62184;52.006;5.924;2023-05-10T08:27:46;39.28;;;20.88;;
73841;SDS011;62184;52.006;5.924;2023-05-10T08:30:13;41.50;;;21.10;;
73841;SDS011;62184;52.006;5.924;2023-05-10T08:32:39;41.88;;;21.33;;
73841;SDS011;62184;52.006;5.924;2023-05-10T08:35:08;42.22;;;22.60;;
73841;SDS011;62184;52.006;5.924;2023-05-10T08:37:35;42.42;;;22.05;;
73841;SDS011;62184;52.006;5.924;2023-05-10T08:40:01;43.85;;;21.83;;
73841;SDS011;62184;52.006;5.924;2023-05-10T08:42:30;42.67;;;21.63;;
73841;SDS011;62184;52.006;5.924;2023-05-10T08:45:02;37.53;;;19.33;;
73841;SDS011;62184;52.006;5.924;2023-05-10T08:47:30;36.35;;;18.63;;
73841;SDS011;62184;52.006;5.924;2023-05-10T08:49:56;32.58;;;17.13;;
73841;SDS011;62184;52.006;5.924;2023-05-10T08:52:28;32.03;;;17.00;;
73841;SDS011;62184;52.006;5.924;2023-05-10T08:54:58;31.23;;;16.70;;
73841;SDS011;62184;52.006;5.924;2023-05-10T08:57:25;30.58;;;16.83;;
73841;SDS011;62184;52.006;5.924;2023-05-10T08:59:52;30.92;;;16.48;;
73841;SDS011;62184;52.006;5.924;2023-05-10T09:02:19;30.48;;;16.38;;
73841;SDS011;62184;52.006;5.924;2023-05-10T09:04:48;29.08;;;16.83;;
73841;SDS011;62184;52.006;5.924;2023-05-10T09:07:15;32.13;;;16.30;;
73841;SDS011;62184;52.006;5.924;2023-05-10T09:09:45;34.25;;;16.60;;
73841;SDS011;62184;52.006;5.924;2023-05-10T09:12:12;31.60;;;17.02;;
73841;SDS011;62184;52.006;5.924;2023-05-10T09:14:39;28.38;;;15.35;;
73841;SDS011;62184;52.006;5.924;2023-05-10T09:17:06;26.40;;;14.77;;
73841;SDS011;62184;52.006;5.924;2023-05-10T09:19:32;24.40;;;13.55;;
73841;SDS011;62184;52.006;5.924;2023-05-10T09:21:59;23.85;;;13.30;;
73841;SDS011;62184;52.006;5.924;2023-05-10T09:24:25;22.60;;;12.53;;
73841;SDS011;62184;52.006;5.924;2023-05-10T09:26:55;21.15;;;11.93;;
73841;SDS011;62184;52.006;5.924;2023-05-10T09:29:23;19.40;;;11.40;;
73841;SDS011;62184;52.006;5.924;2023-05-10T09:31:49;18.90;;;11.10;;
73841;SDS011;62184;52.006;5.924;2023-05-10T09:34:18;18.42;;;10.68;;
73841;SDS011;62184;52.006;5.924;2023-05-10T09:36:53;17.05;;;10.15;;
73841;SDS011;62184;52.006;5.924;2023-05-10T09:39:29;16.67;;;10.30;;
73841;SDS011;62184;52.006;5.924;2023-05-10T09:42:01;16.55;;;10.05;;
73841;SDS011;62184;52.006;5.924;2023-05-10T09:44:30;15.88;;;9.13;;
73841;SDS011;62184;52.006;5.924;2023-05-10T09:46:58;15.93;;;9.43;;
73841;SDS011;62184;52.006;5.924;2023-05-10T09:49:24;14.75;;;9.10;;
73841;SDS011;62184;52.006;5.924;2023-05-10T09:52:01;16.43;;;9.30;;
73841;SDS011;62184;52.006;5.924;2023-05-10T09:54:29;14.73;;;9.40;;
73841;SDS011;62184;52.006;5.924;2023-05-10T09:56:56;17.02;;;9.93;;
73841;SDS011;62184;52.006;5.924;2023-05-10T09:59:26;15.63;;;9.90;;
73841;SDS011;62184;52.006;5.924;2023-05-10T10:01:55;16.23;;;9.60;;
73841;SDS011;62184;52.006;5.924;2023-05-10T10:04:23;14.70;;;9.70;;
73841;SDS011;62184;52.006;5.924;2023-05-10T10:06:59;14.85;;;9.50;;
73841;SDS011;62184;52.006;5.924;2023-05-10T10:09:28;15.63;;;10.07;;
73841;SDS011;62184;52.006;5.924;2023-05-10T10:11:55;15.65;;;10.02;;
73841;SDS011;62184;52.006;5.924;2023-05-10T10:14:21;15.63;;;9.98;;
73841;SDS011;62184;52.006;5.924;2023-05-10T10:16:51;15.57;;;9.82;;
73841;SDS011;62184;52.006;5.924;2023-05-10T10:19:19;15.82;;;10.15;;
73841;SDS011;62184;52.006;5.924;2023-05-10T10:21:46;14.50;;;9.57;;
73841;SDS011;62184;52.006;5.924;2023-05-10T10:24:12;16.33;;;10.18;;
73841;SDS011;62184;52.006;5.924;2023-05-10T10:26:39;16.03;;;10.30;;
73841;SDS011;62184;52.006;5.924;2023-05-10T10:29:10;16.67;;;10.18;;
73841;SDS011;62184;52.006;5.924;2023-05-10T10:31:47;16.27;;;10.40;;
73841;SDS011;62184;52.006;5.924;2023-05-10T10:34:29;14.70;;;10.02;;
73841;SDS011;62184;52.006;5.924;2023-05-10T10:36:57;17.05;;;10.38;;
73841;SDS011;62184;52.006;5.924;2023-05-10T10:39:30;15.52;;;9.93;;
73841;SDS011;62184;52.006;5.924;2023-05-10T10:41:58;15.85;;;9.68;;
73841;SDS011;62184;52.006;5.924;2023-05-10T10:44:35;16.25;;;10.35;;
73841;SDS011;62184;52.006;5.924;2023-05-10T10:47:11;15.98;;;10.07;;
73841;SDS011;62184;52.006;5.924;2023-05-10T10:49:49;16.80;;;10.35;;
73841;SDS011;62184;52.006;5.924;2023-05-10T10:52:28;15.40;;;10.48;;
73841;SDS011;62184;52.006;5.924;2023-05-10T10:54:58;14.27;;;9.45;;
73841;SDS011;62184;52.006;5.924;2023-05-10T10:57:30;14.52;;;10.07;;
73841;SDS011;62184;52.006;5.924;2023-05-10T11:02:55;13.40;;;9.53;;
73841;SDS011;62184;52.006;5.924;2023-05-10T11:05:25;15.77;;;10.17;;
73841;SDS011;62184;52.006;5.924;2023-05-10T11:08:11;15.73;;;9.80;;
73841;SDS011;62184;52.006;5.924;2023-05-10T11:10:48;16.20;;;10.60;;
73841;SDS011;62184;52.006;5.924;2023-05-10T11:13:21;15.35;;;10.77;;
73841;SDS011;62184;52.006;5.924;2023-05-10T11:15:54;14.70;;;10.93;;
73841;SDS011;62184;52.006;5.924;2023-05-10T11:18:25;16.80;;;11.07;;
73841;SDS011;62184;52.006;5.924;2023-05-10T11:20:55;14.73;;;11.05;;
73841;SDS011;62184;52.006;5.924;2023-05-10T11:23:28;15.10;;;11.20;;
73841;SDS011;62184;52.006;5.924;2023-05-10T11:25:57;16.83;;;11.67;;
73841;SDS011;62184;52.006;5.924;2023-05-10T11:28:25;16.38;;;11.57;;
73841;SDS011;62184;52.006;5.924;2023-05-10T11:30:52;15.70;;;10.70;;
73841;SDS011;62184;52.006;5.924;2023-05-10T11:33:20;15.25;;;11.10;;
73841;SDS011;62184;52.006;5.924;2023-05-10T11:35:49;14.45;;;9.80;;
73841;SDS011;62184;52.006;5.924;2023-05-10T11:38:15;14.82;;;10.65;;
73841;SDS011;62184;52.006;5.924;2023-05-10T11:40:42;14.27;;;10.52;;
73841;SDS011;62184;52.006;5.924;2023-05-10T11:43:09;14.10;;;10.47;;
73841;SDS011;62184;52.006;5.924;2023-05-10T11:45:35;14.18;;;10.32;;
73841;SDS011;62184;52.006;5.924;2023-05-10T11:48:02;13.68;;;9.50;;
73841;SDS011;62184;52.006;5.924;2023-05-10T11:50:29;13.10;;;9.57;;
73841;SDS011;62184;52.006;5.924;2023-05-10T11:52:59;12.13;;;8.52;;
73841;SDS011;62184;52.006;5.924;2023-05-10T11:55:25;12.60;;;8.83;;
73841;SDS011;62184;52.006;5.924;2023-05-10T11:57:52;12.20;;;9.10;;
73841;SDS011;62184;52.006;5.924;2023-05-10T12:00:19;13.00;;;9.27;;
73841;SDS011;62184;52.006;5.924;2023-05-10T12:02:46;12.85;;;8.75;;
73841;SDS011;62184;52.006;5.924;2023-05-10T12:05:13;13.38;;;9.40;;
73841;SDS011;62184;52.006;5.924;2023-05-10T12:07:40;10.65;;;8.23;;
73841;SDS011;62184;52.006;5.924;2023-05-10T12:10:10;13.30;;;9.00;;
73841;SDS011;62184;52.006;5.924;2023-05-10T12:12:39;12.50;;;9.52;;
73841;SDS011;62184;52.006;5.924;2023-05-10T12:15:10;12.43;;;9.40;;
73841;SDS011;62184;52.006;5.924;2023-05-10T12:17:43;13.50;;;9.75;;
73841;SDS011;62184;52.006;5.924;2023-05-10T12:20:14;12.65;;;9.43;;
73841;SDS011;62184;52.006;5.924;2023-05-10T12:22:45;12.57;;;9.00;;
73841;SDS011;62184;52.006;5.924;2023-05-10T12:25:18;12.35;;;9.00;;
73841;SDS011;62184;52.006;5.924;2023-05-10T12:27:48;13.13;;;9.15;;
73841;SDS011;62184;52.006;5.924;2023-05-10T12:30:20;11.00;;;8.90;;
73841;SDS011;62184;52.006;5.924;2023-05-10T12:32:48;11.32;;;8.88;;
73841;SDS011;62184;52.006;5.924;2023-05-10T12:35:15;10.70;;;8.57;;
73841;SDS011;62184;52.006;5.924;2023-05-10T12:37:42;11.55;;;8.65;;
73841;SDS011;62184;52.006;5.924;2023-05-10T12:40:09;10.63;;;8.10;;
73841;SDS011;62184;52.006;5.924;2023-05-10T12:42:40;10.43;;;8.48;;
73841;SDS011;62184;52.006;5.924;2023-05-10T12:45:07;11.18;;;8.48;;
73841;SDS011;62184;52.006;5.924;2023-05-10T12:47:34;10.95;;;8.80;;
73841;SDS011;62184;52.006;5.924;2023-05-10T12:50:01;10.32;;;8.77;;
73841;SDS011;62184;52.006;5.924;2023-05-10T12:52:28;11.63;;;9.07;;
73841;SDS011;62184;52.006;5.924;2023-05-10T12:54:56;12.70;;;9.50;;
73841;SDS011;62184;52.006;5.924;2023-05-10T12:57:23;12.15;;;9.70;;
73841;SDS011;62184;52.006;5.924;2023-05-10T12:59:52;11.07;;;8.57;;
73841;SDS011;62184;52.006;5.924;2023-05-10T13:02:18;11.87;;;9.77;;
73841;SDS011;62184;52.006;5.924;2023-05-10T13:04:45;11.68;;;9.88;;
73841;SDS011;62184;52.006;5.924;2023-05-10T13:07:11;11.98;;;10.55;;
73841;SDS011;62184;52.006;5.924;2023-05-10T13:09:38;11.93;;;9.57;;
73841;SDS011;62184;52.006;5.924;2023-05-10T13:12:05;11.87;;;9.77;;
73841;SDS011;62184;52.006;5.924;2023-05-10T13:14:32;11.32;;;9.70;;
73841;SDS011;62184;52.006;5.924;2023-05-10T13:17:01;11.45;;;9.50;;
73841;SDS011;62184;52.006;5.924;2023-05-10T13:19:27;10.55;;;9.32;;
73841;SDS011;62184;52.006;5.924;2023-05-10T13:21:54;12.00;;;9.23;;
73841;SDS011;62184;52.006;5.924;2023-05-10T13:24:20;11.50;;;9.18;;
73841;SDS011;62184;52.006;5.924;2023-05-10T13:26:46;10.50;;;9.05;;
73841;SDS011;62184;52.006;5.924;2023-05-10T13:29:13;11.50;;;9.23;;
73841;SDS011;62184;52.006;5.924;2023-05-10T13:31:39;10.23;;;8.63;;
73841;SDS011;62184;52.006;5.924;2023-05-10T13:34:08;10.38;;;9.15;;
73841;SDS011;62184;52.006;5.924;2023-05-10T13:36:35;10.95;;;9.10;;
73841;SDS011;62184;52.006;5.924;2023-05-10T13:39:01;10.65;;;8.60;;
73841;SDS011;62184;52.006;5.924;2023-05-10T13:41:27;9.98;;;8.95;;
73841;SDS011;62184;52.006;5.924;2023-05-10T13:43:54;11.15;;;9.50;;
73841;SDS011;62184;52.006;5.924;2023-05-10T13:46:20;10.70;;;9.40;;
73841;SDS011;62184;52.006;5.924;2023-05-10T13:48:46;11.80;;;9.32;;
73841;SDS011;62184;52.006;5.924;2023-05-10T13:51:15;11.13;;;9.57;;
73841;SDS011;62184;52.006;5.924;2023-05-10T13:53:42;11.50;;;9.55;;
73841;SDS011;62184;52.006;5.924;2023-05-10T13:56:08;11.57;;;9.40;;
73841;SDS011;62184;52.006;5.924;2023-05-10T13:58:35;10.00;;;8.90;;
73841;SDS011;62184;52.006;5.924;2023-05-10T14:01:01;11.93;;;10.73;;
73841;SDS011;62184;52.006;5.924;2023-05-10T14:03:27;12.95;;;11.57;;
73841;SDS011;62184;52.006;5.924;2023-05-10T14:05:54;13.88;;;12.43;;
73841;SDS011;62184;52.006;5.924;2023-05-10T14:08:23;15.65;;;12.75;;
73841;SDS011;62184;52.006;5.924;2023-05-10T14:10:49;14.75;;;12.88;;
73841;SDS011;62184;52.006;5.924;2023-05-10T14:13:16;14.32;;;12.13;;
73841;SDS011;62184;52.006;5.924;2023-05-10T14:15:42;14.52;;;11.85;;
73841;SDS011;62184;52.006;5.924;2023-05-10T14:18:09;15.43;;;12.20;;
73841;SDS011;62184;52.006;5.924;2023-05-10T14:20:35;13.75;;;11.80;;
73841;SDS011;62184;52.006;5.924;2023-05-10T14:23:01;13.70;;;12.13;;
73841;SDS011;62184;52.006;5.924;2023-05-10T14:25:30;15.07;;;12.32;;
73841;SDS011;62184;52.006;5.924;2023-05-10T14:27:57;14.82;;;12.05;;
73841;SDS011;62184;52.006;5.924;2023-05-10T14:30:23;14.25;;;11.52;;
73841;SDS011;62184;52.006;5.924;2023-05-10T14:32:50;13.60;;;11.32;;
73841;SDS011;62184;52.006;5.924;2023-05-10T14:35:16;13.30;;;11.20;;